Terminal Aerodrome Forecast
Issued by NWS Jacksonville, FL

Home | Current Version | Previous Version | Text Only | Print | Product List | Glossary On
Versions: 1 2 3 4 5 6 7 8 9 10 11 12 13 14
000
FTUS42 KJAX 310554
TAFGNV
TAF
KGNV 310554Z 3106/0106 20003KT P6SM FEW030 SCT250
     FM311400 19004KT P6SM SCT025 SCT250
     FM311700 18007KT P6SM VCTS SCT040CB SCT150 BKN250 PROB30
      3118/3122 VRB15G25KT 3SM +TSRA BR SCT020 BKN035CB OVC100
     FM312300 18004KT P6SM VCTS BKN040CB BKN150 OVC250=

USA.gov is the U.S. government's official web portal to all federal, state and local government web resources and services.